Decoded Metar for KAQW (NORTH ADAMS in MA, USA) (IATA:AQW) | Meteo·Mobile Aviation Weather
aviador You're here:

KAQW Decoded Metar

NORTH ADAMS in MA, USA
Report Time2018-12-18 19:52:00
UTC Time2018-12-18 20:53:27
Flight Rules vfr VFR
WindVRB at 05 kt
Visibility9999 m
Phenomena:N/A
Clouds:N/A
Expected CloudBase > 3,600 ft AGL from Temp-Dew spread
CeilingNone
Temp-3°C (ISA -17)
Dew Point-12°C (50% RH)
AAT-8.0°C
QNH1016 hPa
Density Alt-1,463 ft
Elevation653 ft
Report Wrong Elevation
Raw Report
KAQW 181952Z AUTO VRB05KT 10SM CLR M03/M12 A3000 RMK AO2 SLP169
T10331122=

Extra information for KAQW:More info

Metar Taf Metar & Taf Last 4 Metars F.Rules Stats Wind Profile Meteogram Temp Stats Airport Information Weather charts Add Link Nearby VenuesMetar ALERT Operation Metar Decoded Social comments

AIRNAV info for KAQW